Hendrix, Oklahoma
Current Conditions -  °F | °C
As of 8:15 AM on Sunday 21 Dec 2014 (Local Time) from KDUA Reporting Station
Overcast Overcast  
Wind Chill: 45°   Ceiling: 3200
Heat Index: 45°   Visibility: 7mi
Dew Point: 45°   Wind: 3mph
Humidity: 100%   Direction: 150°SSE
Pressure: 30.1"   Gusts: NA
Location:  33.77°N, 96.41°W
Report Text: KDUA 211415Z AUTO 15003KT 7SM OVC032 07/07 A3010 RMK AO2
Loading
Personal Weather Stations






























Interactive Weather Map New forecast layout! Learn more

10-Day Weather Forecast

Advertisements
Track Severe Weather on mobile